createdAt,value
2023-08-20T00:01:57.267Z,25.00
2023-08-20T00:03:59.108Z,25.02
2023-08-20T00:06:01.265Z,25.00
2023-08-20T00:08:03.634Z,24.99
2023-08-20T00:10:05.793Z,24.98
2023-08-20T00:12:07.495Z,24.92
2023-08-20T00:14:09.061Z,24.92
2023-08-20T00:16:11.350Z,24.94
2023-08-20T00:18:13.346Z,24.97
2023-08-20T00:20:18.032Z,24.96
2023-08-20T00:22:20.564Z,24.94
2023-08-20T00:24:22.423Z,24.94
2023-08-20T00:26:24.341Z,24.91
2023-08-20T00:28:26.121Z,24.89
2023-08-20T00:30:27.786Z,24.91
2023-08-20T00:32:29.533Z,24.90
2023-08-20T00:34:31.157Z,24.89
2023-08-20T00:36:32.678Z,24.88
2023-08-20T00:38:34.285Z,24.89
2023-08-20T00:40:36.018Z,24.89
2023-08-20T00:42:38.516Z,24.87
2023-08-20T00:44:42.213Z,24.82
2023-08-20T00:46:44.093Z,24.87
2023-08-20T00:48:45.734Z,24.85
2023-08-20T00:50:47.438Z,24.85
2023-08-20T00:52:49.425Z,24.85
2023-08-20T00:54:51.252Z,24.85
2023-08-20T00:56:53.093Z,24.83
2023-08-20T00:58:55.631Z,24.83
2023-08-20T01:00:57.282Z,24.82
2023-08-20T01:02:58.985Z,24.84
2023-08-20T01:05:02.188Z,24.80
2023-08-20T01:07:46.288Z,24.83
2023-08-20T01:10:01.132Z,24.82
2023-08-20T01:14:17.903Z,24.77
2023-08-20T01:16:19.457Z,24.78
2023-08-20T01:18:21.075Z,24.77
2023-08-20T01:20:28.292Z,24.79
2023-08-20T01:22:36.146Z,24.78
2023-08-20T01:25:07.058Z,24.77
2023-08-20T01:27:47.746Z,24.76
2023-08-20T01:29:50.163Z,24.75
2023-08-20T01:31:53.164Z,24.73
2023-08-20T01:33:58.377Z,24.74
2023-08-20T01:36:00.549Z,24.74
2023-08-20T01:38:02.199Z,24.70
2023-08-20T01:40:04.973Z,24.73
2023-08-20T01:42:07.212Z,24.73
2023-08-20T01:44:08.950Z,24.72
2023-08-20T01:46:10.863Z,24.71
2023-08-20T01:48:12.621Z,24.71
2023-08-20T01:50:14.432Z,24.67
2023-08-20T01:52:16.045Z,24.70
2023-08-20T01:54:18.224Z,24.69
2023-08-20T01:56:19.869Z,24.68
2023-08-20T01:58:21.469Z,24.67
2023-08-20T02:00:23.036Z,24.67
2023-08-20T02:02:25.134Z,24.66
2023-08-20T02:04:26.886Z,24.64
2023-08-20T02:06:28.503Z,24.66
2023-08-20T02:08:30.063Z,24.65
2023-08-20T02:10:31.628Z,24.65
2023-08-20T02:12:33.290Z,24.65
2023-08-20T02:14:36.166Z,24.63
2023-08-20T02:16:38.066Z,24.63
2023-08-20T02:18:39.706Z,24.61
2023-08-20T02:20:44.432Z,24.63
2023-08-20T02:22:46.053Z,24.63
2023-08-20T02:24:47.943Z,24.62
2023-08-20T02:26:49.573Z,24.58
2023-08-20T02:28:51.487Z,24.59
2023-08-20T02:30:53.355Z,24.61
2023-08-20T02:32:55.004Z,24.59
2023-08-20T02:34:56.650Z,24.58
2023-08-20T02:36:58.270Z,24.56
2023-08-20T02:38:59.842Z,24.57
2023-08-20T02:41:02.222Z,24.54
2023-08-20T02:43:03.959Z,24.53
2023-08-20T02:45:06.214Z,24.54
2023-08-20T02:47:07.840Z,24.54
2023-08-20T02:49:09.380Z,24.54
2023-08-20T02:51:10.930Z,24.53
2023-08-20T02:53:12.746Z,24.54
2023-08-20T02:55:14.433Z,24.54
2023-08-20T02:57:16.304Z,24.52
2023-08-20T02:59:17.958Z,24.53
2023-08-20T03:01:24.870Z,24.50
2023-08-20T03:03:26.527Z,24.49
2023-08-20T03:05:28.181Z,24.51
2023-08-20T03:07:29.761Z,24.51
2023-08-20T03:09:31.400Z,24.47
2023-08-20T03:11:32.929Z,24.47
2023-08-20T03:13:34.669Z,24.48
2023-08-20T03:15:36.344Z,24.49
2023-08-20T03:17:38.344Z,24.45
2023-08-20T03:19:57.762Z,24.44
2023-08-20T03:21:59.384Z,24.45
2023-08-20T03:24:01.038Z,24.42
2023-08-20T03:26:03.608Z,24.45
2023-08-20T03:28:05.526Z,24.46
2023-08-20T03:30:08.327Z,24.43
2023-08-20T03:32:10.655Z,24.42
2023-08-20T03:34:12.281Z,24.42
2023-08-20T03:36:13.893Z,24.42
2023-08-20T03:38:15.483Z,24.40
2023-08-20T03:40:17.197Z,24.42
2023-08-20T03:42:18.911Z,24.40
2023-08-20T03:44:20.629Z,24.39
2023-08-20T03:46:22.240Z,24.40
2023-08-20T03:48:24.004Z,24.40
2023-08-20T03:50:25.711Z,24.38
2023-08-20T03:52:27.330Z,24.39
2023-08-20T03:54:30.228Z,24.37
2023-08-20T03:56:31.850Z,24.38
2023-08-20T03:58:33.449Z,24.35
2023-08-20T04:00:36.029Z,24.34
2023-08-20T04:02:37.636Z,24.33
2023-08-20T04:04:39.313Z,24.35
2023-08-20T04:06:40.909Z,24.36
2023-08-20T04:08:43.307Z,24.35
2023-08-20T04:10:46.899Z,24.31
2023-08-20T04:12:48.526Z,24.34
2023-08-20T04:14:50.112Z,24.34
2023-08-20T04:16:51.754Z,24.33
2023-08-20T04:18:53.319Z,24.30
2023-08-20T04:20:56.721Z,24.33
2023-08-20T04:22:58.306Z,24.31
2023-08-20T04:24:59.996Z,24.32
2023-08-20T04:27:02.264Z,24.28
2023-08-20T04:29:04.110Z,24.31
2023-08-20T04:31:05.806Z,24.25
2023-08-20T04:33:07.809Z,24.30
2023-08-20T04:35:09.585Z,24.30
2023-08-20T04:37:11.146Z,24.29
2023-08-20T04:39:12.798Z,24.27
2023-08-20T04:41:14.383Z,24.29
2023-08-20T04:43:16.679Z,24.27
2023-08-20T04:45:20.569Z,24.25
2023-08-20T04:47:22.178Z,24.26
2023-08-20T04:49:23.925Z,24.22
2023-08-20T04:51:25.476Z,24.21
2023-08-20T04:53:27.249Z,24.21
2023-08-20T04:55:29.329Z,24.24
2023-08-20T04:57:30.878Z,24.23
2023-08-20T04:59:32.564Z,24.22
2023-08-20T05:01:34.228Z,24.22
2023-08-20T05:03:36.092Z,24.24
2023-08-20T05:05:37.797Z,24.23
2023-08-20T05:07:39.341Z,24.22
2023-08-20T05:09:40.873Z,24.21
2023-08-20T05:11:42.843Z,24.21
2023-08-20T05:13:46.668Z,24.14
2023-08-20T05:15:48.239Z,24.21
2023-08-20T05:17:49.944Z,24.18
2023-08-20T05:19:51.581Z,24.19
2023-08-20T05:21:56.979Z,24.19
2023-08-20T05:23:58.665Z,24.18
2023-08-20T05:26:00.398Z,24.17
2023-08-20T05:28:02.550Z,24.17
2023-08-20T05:30:04.554Z,24.13
2023-08-20T05:32:06.354Z,24.13
2023-08-20T05:34:08.004Z,24.15
2023-08-20T05:36:09.615Z,24.13
2023-08-20T05:38:11.323Z,24.16
2023-08-20T05:40:12.945Z,24.13
2023-08-20T05:42:14.633Z,24.15
2023-08-20T05:44:16.443Z,24.12
2023-08-20T05:46:18.091Z,24.12
2023-08-20T05:48:19.760Z,24.11
2023-08-20T05:50:21.517Z,24.12
2023-08-20T05:52:23.382Z,24.11
2023-08-20T05:54:25.085Z,24.11
2023-08-20T05:56:26.893Z,24.11
2023-08-20T05:58:28.580Z,24.11
2023-08-20T06:00:30.173Z,24.08
2023-08-20T06:02:31.793Z,24.10
2023-08-20T06:04:33.569Z,24.08
2023-08-20T06:06:35.223Z,24.10
2023-08-20T06:08:36.918Z,24.09
2023-08-20T06:10:38.459Z,24.04
2023-08-20T06:12:40.201Z,24.03
2023-08-20T06:14:41.758Z,24.07
2023-08-20T06:16:43.529Z,24.08
2023-08-20T06:18:45.222Z,24.09
2023-08-20T06:20:46.804Z,24.07
2023-08-20T06:22:48.831Z,24.07
2023-08-20T06:24:50.425Z,24.08
2023-08-20T06:26:52.860Z,24.05
2023-08-20T06:28:54.572Z,24.05
2023-08-20T06:30:56.164Z,24.05
2023-08-20T06:32:57.738Z,24.03
2023-08-20T06:34:59.342Z,24.03
2023-08-20T06:37:00.902Z,24.04
2023-08-20T06:39:03.066Z,23.99
2023-08-20T06:41:04.668Z,24.01
2023-08-20T06:43:06.307Z,24.04
2023-08-20T06:45:09.217Z,24.03
2023-08-20T06:47:10.756Z,24.03
2023-08-20T06:49:12.381Z,24.00
2023-08-20T06:51:20.848Z,24.03
2023-08-20T06:53:22.558Z,24.00
2023-08-20T06:55:24.179Z,24.02
2023-08-20T06:57:25.818Z,24.01
2023-08-20T06:59:28.218Z,24.01
2023-08-20T07:01:30.108Z,24.01
2023-08-20T07:03:31.692Z,23.98
2023-08-20T07:05:33.356Z,23.97
2023-08-20T07:07:35.017Z,24.00
2023-08-20T07:09:36.998Z,24.00
2023-08-20T07:11:38.613Z,24.00
2023-08-20T07:13:40.206Z,23.98
2023-08-20T07:15:41.817Z,23.98
2023-08-20T07:17:46.036Z,23.99
2023-08-20T07:19:48.284Z,23.99
2023-08-20T07:21:50.596Z,24.00
2023-08-20T07:23:52.161Z,23.99
2023-08-20T07:26:05.614Z,23.99
2023-08-20T07:28:10.829Z,23.99
2023-08-20T07:30:12.875Z,23.99
2023-08-20T07:32:14.472Z,24.00
2023-08-20T07:34:16.698Z,23.98
2023-08-20T07:36:19.223Z,23.97
2023-08-20T07:38:20.770Z,23.98
2023-08-20T07:40:22.364Z,24.00
2023-08-20T07:42:23.981Z,23.99
2023-08-20T07:44:25.665Z,23.98
2023-08-20T07:46:27.375Z,24.02
2023-08-20T07:48:28.970Z,24.03
2023-08-20T07:50:30.987Z,24.02
2023-08-20T07:52:33.413Z,24.03
2023-08-20T07:54:35.070Z,24.03
2023-08-20T07:56:36.672Z,24.05
2023-08-20T07:58:38.267Z,24.04
2023-08-20T08:00:40.008Z,24.04
2023-08-20T08:02:41.740Z,24.03
2023-08-20T08:04:45.381Z,24.08
2023-08-20T08:06:48.049Z,24.08
2023-08-20T08:08:49.693Z,24.08
2023-08-20T08:10:51.295Z,24.07
2023-08-20T08:12:52.990Z,24.10
2023-08-20T08:14:54.628Z,24.09
2023-08-20T08:16:56.647Z,24.11
2023-08-20T08:18:58.271Z,24.08
2023-08-20T08:20:59.894Z,24.13
2023-08-20T08:23:01.776Z,24.14
2023-08-20T08:25:03.634Z,24.12
2023-08-20T08:27:05.326Z,24.14
2023-08-20T08:29:08.103Z,24.16
2023-08-20T08:31:09.693Z,24.16
2023-08-20T08:33:11.314Z,24.16
2023-08-20T08:35:13.096Z,24.17
2023-08-20T08:37:16.253Z,24.22
2023-08-20T08:39:17.921Z,24.21
2023-08-20T08:41:24.635Z,24.24
2023-08-20T08:43:27.890Z,24.27
2023-08-20T08:45:32.311Z,24.26
2023-08-20T08:47:36.359Z,24.25
2023-08-20T08:49:38.230Z,24.29
2023-08-20T08:51:41.796Z,24.30
2023-08-20T08:53:46.918Z,24.30
2023-08-20T08:55:48.637Z,24.28
2023-08-20T08:57:50.289Z,24.33
2023-08-20T08:59:52.017Z,24.35
2023-08-20T09:01:54.197Z,24.35
2023-08-20T09:03:55.817Z,24.37
2023-08-20T09:06:01.489Z,24.36
2023-08-20T09:08:03.094Z,24.35
2023-08-20T09:10:04.995Z,24.39
2023-08-20T09:12:20.859Z,24.41
2023-08-20T09:14:30.889Z,24.40
2023-08-20T09:16:33.085Z,24.43
2023-08-20T09:18:41.797Z,24.42
2023-08-20T09:20:43.361Z,24.47
2023-08-20T09:22:50.636Z,24.48
2023-08-20T09:24:57.174Z,24.49
2023-08-20T09:27:01.634Z,24.48
2023-08-20T09:29:04.480Z,24.52
2023-08-20T09:31:06.264Z,24.52
2023-08-20T09:33:16.848Z,24.55
2023-08-20T09:35:21.588Z,24.56
2023-08-20T09:37:24.999Z,24.60
2023-08-20T09:39:26.543Z,24.56
2023-08-20T09:41:28.939Z,24.63
2023-08-20T09:43:32.104Z,24.61
2023-08-20T09:45:33.840Z,24.66
2023-08-20T09:47:38.181Z,24.68
2023-08-20T09:49:42.256Z,24.69
2023-08-20T09:51:45.763Z,24.70
2023-08-20T09:53:57.990Z,24.72
2023-08-20T09:56:10.368Z,24.72
2023-08-20T09:58:12.596Z,24.73
2023-08-20T10:00:15.269Z,24.74
2023-08-20T10:02:17.470Z,24.76
2023-08-20T10:04:20.052Z,24.78
2023-08-20T10:06:21.960Z,24.80
2023-08-20T10:08:23.659Z,24.77
2023-08-20T10:10:26.812Z,24.79
2023-08-20T10:12:29.241Z,24.81
2023-08-20T10:14:30.902Z,24.81
2023-08-20T10:16:34.696Z,24.81
2023-08-20T10:18:36.590Z,24.85
2023-08-20T10:20:41.535Z,24.87
2023-08-20T10:22:44.897Z,24.86
2023-08-20T10:24:51.953Z,24.88
2023-08-20T10:27:14.182Z,24.89
2023-08-20T10:29:40.712Z,24.90
2023-08-20T10:31:48.965Z,24.89
2023-08-20T10:33:55.051Z,24.91
2023-08-20T10:35:56.639Z,24.94
2023-08-20T10:38:12.330Z,24.95
2023-08-20T10:40:13.884Z,24.95
2023-08-20T10:42:23.265Z,24.98
2023-08-20T10:44:25.010Z,24.99
2023-08-20T10:46:31.192Z,24.99
2023-08-20T10:48:35.200Z,25.00
2023-08-20T10:50:37.810Z,25.00
2023-08-20T10:52:41.161Z,25.01
2023-08-20T10:54:42.905Z,25.04
2023-08-20T10:56:45.506Z,25.04
2023-08-20T10:58:48.506Z,25.05
2023-08-20T11:01:21.136Z,25.06
2023-08-20T11:03:22.890Z,25.09
2023-08-20T11:05:24.958Z,25.11
2023-08-20T11:07:28.466Z,25.10
2023-08-20T11:09:31.243Z,25.14
2023-08-20T11:11:33.426Z,25.15
2023-08-20T11:13:36.289Z,25.16
2023-08-20T11:15:39.589Z,25.18
2023-08-20T11:17:48.380Z,25.17
2023-08-20T11:20:06.629Z,25.20
2023-08-20T11:22:10.469Z,25.17
2023-08-20T11:24:12.779Z,25.22
2023-08-20T11:26:14.417Z,25.22
2023-08-20T11:28:16.017Z,25.24
2023-08-20T11:30:17.865Z,25.24
2023-08-20T11:32:20.383Z,25.27
2023-08-20T11:34:22.381Z,25.24
2023-08-20T11:36:24.209Z,25.28
2023-08-20T11:38:26.418Z,25.28
2023-08-20T11:40:28.018Z,25.26
2023-08-20T11:42:29.860Z,25.32
2023-08-20T11:44:44.790Z,25.31
2023-08-20T11:46:46.528Z,25.35
2023-08-20T11:49:05.726Z,25.35
2023-08-20T11:51:07.365Z,25.37
2023-08-20T11:53:11.169Z,25.36
2023-08-20T11:55:12.821Z,25.34
2023-08-20T11:57:14.476Z,25.35
2023-08-20T11:59:17.842Z,25.37
2023-08-20T12:01:20.338Z,25.40
2023-08-20T12:03:23.074Z,25.41
2023-08-20T12:05:29.215Z,25.41
2023-08-20T12:07:30.805Z,25.43
2023-08-20T12:09:32.979Z,25.45
2023-08-20T12:11:34.764Z,25.48
2023-08-20T12:13:36.545Z,25.46
2023-08-20T12:15:38.139Z,25.48
2023-08-20T12:17:39.734Z,25.49
2023-08-20T12:19:41.324Z,25.51
2023-08-20T12:21:44.355Z,25.52
2023-08-20T12:23:45.911Z,25.49
2023-08-20T12:25:51.171Z,25.50
2023-08-20T12:27:52.767Z,25.52
2023-08-20T12:29:54.348Z,25.47
2023-08-20T12:31:56.195Z,25.54
2023-08-20T12:33:57.746Z,25.57
2023-08-20T12:35:59.692Z,25.58
2023-08-20T12:38:01.663Z,25.59
2023-08-20T12:40:05.088Z,25.58
2023-08-20T12:42:07.087Z,25.58
2023-08-20T12:44:08.793Z,25.61
2023-08-20T12:46:10.483Z,25.61
2023-08-20T12:48:12.242Z,25.62
2023-08-20T12:50:15.382Z,25.62
2023-08-20T12:52:17.300Z,25.61
2023-08-20T12:54:18.931Z,25.65
2023-08-20T12:56:20.509Z,25.67
2023-08-20T12:58:22.089Z,25.68
2023-08-20T13:00:28.415Z,25.68
2023-08-20T13:02:30.410Z,25.70
2023-08-20T13:04:32.349Z,25.71
2023-08-20T13:06:34.348Z,25.69
2023-08-20T13:08:36.214Z,25.72
2023-08-20T13:10:38.173Z,25.73
2023-08-20T13:12:42.887Z,25.73
2023-08-20T13:14:44.738Z,25.74
2023-08-20T13:16:46.672Z,25.73
2023-08-20T13:18:48.654Z,25.72
2023-08-20T13:20:50.395Z,25.72
2023-08-20T13:22:53.059Z,25.76
2023-08-20T13:24:54.600Z,25.78
2023-08-20T13:26:56.246Z,25.79
2023-08-20T13:28:57.988Z,25.79
2023-08-20T13:30:59.613Z,25.80
2023-08-20T13:33:01.933Z,25.82
2023-08-20T13:35:05.577Z,25.79
2023-08-20T13:37:07.246Z,25.86
2023-08-20T13:39:08.959Z,25.87
2023-08-20T13:41:10.858Z,25.88
2023-08-20T13:43:12.469Z,25.88
2023-08-20T13:45:13.985Z,25.93
2023-08-20T13:47:15.560Z,25.92
2023-08-20T13:49:17.124Z,25.94
2023-08-20T13:51:18.863Z,25.91
2023-08-20T13:53:20.494Z,25.98
2023-08-20T13:55:22.667Z,25.96
2023-08-20T13:57:24.429Z,26.01
2023-08-20T13:59:26.088Z,26.02
2023-08-20T14:01:27.800Z,26.04
2023-08-20T14:03:29.528Z,26.05
2023-08-20T14:05:31.205Z,26.04
2023-08-20T14:07:34.122Z,26.06
2023-08-20T14:09:37.078Z,26.03
2023-08-20T14:11:38.845Z,26.05
2023-08-20T14:13:41.153Z,26.03
2023-08-20T14:15:42.833Z,26.07
2023-08-20T14:17:44.433Z,26.03
2023-08-20T14:19:46.131Z,26.07
2023-08-20T14:21:47.972Z,26.07
2023-08-20T14:23:49.558Z,26.08
2023-08-20T14:25:51.249Z,26.10
2023-08-20T14:27:52.819Z,26.10
2023-08-20T14:29:54.482Z,26.10
2023-08-20T14:31:56.032Z,26.10
2023-08-20T14:33:58.109Z,26.12
2023-08-20T14:35:59.806Z,26.09
2023-08-20T14:38:01.493Z,26.11
2023-08-20T14:40:06.628Z,26.09
2023-08-20T14:42:08.970Z,26.11
2023-08-20T14:44:10.611Z,26.11
2023-08-20T14:46:12.278Z,26.06
2023-08-20T14:48:13.955Z,26.12
2023-08-20T14:50:15.586Z,26.13
2023-08-20T14:52:20.208Z,26.14
2023-08-20T14:54:35.875Z,26.14
2023-08-20T14:56:38.114Z,26.14
2023-08-20T14:58:39.699Z,26.16
2023-08-20T15:00:41.323Z,26.17
2023-08-20T15:02:43.090Z,26.15
2023-08-20T15:04:45.072Z,26.11
2023-08-20T15:06:46.732Z,26.17
2023-08-20T15:08:48.616Z,26.18
2023-08-20T15:10:59.129Z,26.18
2023-08-20T15:13:00.761Z,26.18
2023-08-20T15:15:04.905Z,26.22
2023-08-20T15:17:06.528Z,26.22
2023-08-20T15:19:08.141Z,26.24
2023-08-20T15:21:12.560Z,26.23
2023-08-20T15:23:14.532Z,26.23
2023-08-20T15:25:16.195Z,26.22
2023-08-20T15:27:18.587Z,26.23
2023-08-20T15:29:20.200Z,26.24
2023-08-20T15:31:22.383Z,26.24
2023-08-20T15:33:24.142Z,26.23
2023-08-20T15:35:25.912Z,26.23
2023-08-20T15:37:28.353Z,26.25
2023-08-20T15:39:34.232Z,26.26
2023-08-20T15:41:35.783Z,26.26
2023-08-20T15:43:37.460Z,26.26
2023-08-20T15:45:39.068Z,26.25
2023-08-20T15:47:40.944Z,26.26
2023-08-20T15:49:42.778Z,26.23
2023-08-20T15:51:44.455Z,26.25
2023-08-20T15:53:47.204Z,26.26
2023-08-20T15:55:48.776Z,26.26
2023-08-20T15:57:51.241Z,26.29
2023-08-20T15:59:53.030Z,26.28
2023-08-20T16:01:54.666Z,26.26
2023-08-20T16:03:56.638Z,26.27
2023-08-20T16:05:59.964Z,26.29
2023-08-20T16:08:01.587Z,26.26
2023-08-20T16:10:05.514Z,26.26
2023-08-20T16:12:09.005Z,26.28
2023-08-20T16:14:11.986Z,26.30
2023-08-20T16:16:14.430Z,26.30
2023-08-20T16:18:16.146Z,26.32
2023-08-20T16:20:17.823Z,26.30
2023-08-20T16:22:19.587Z,26.29
2023-08-20T16:24:21.270Z,26.31
2023-08-20T16:26:22.986Z,26.29
2023-08-20T16:28:25.100Z,26.31
2023-08-20T16:30:26.715Z,26.32
2023-08-20T16:32:28.512Z,26.33
2023-08-20T16:34:31.343Z,26.30
2023-08-20T16:36:33.030Z,26.31
2023-08-20T16:38:34.638Z,26.32
2023-08-20T16:40:36.240Z,26.30
2023-08-20T16:42:38.015Z,26.29
2023-08-20T16:44:39.916Z,26.28
2023-08-20T16:46:41.479Z,26.28
2023-08-20T16:48:43.101Z,26.29
2023-08-20T16:50:44.820Z,26.29
2023-08-20T16:52:46.788Z,26.31
2023-08-20T16:54:49.322Z,26.29
2023-08-20T16:56:50.921Z,26.28
2023-08-20T16:58:53.502Z,26.31
2023-08-20T17:00:56.422Z,26.27
2023-08-20T17:02:58.129Z,26.31
2023-08-20T17:04:59.753Z,26.26
2023-08-20T17:07:01.910Z,26.31
2023-08-20T17:09:05.211Z,26.29
2023-08-20T17:11:11.471Z,26.32
2023-08-20T17:13:13.631Z,26.28
2023-08-20T17:15:15.786Z,26.32
2023-08-20T17:17:18.559Z,26.32
2023-08-20T17:19:22.011Z,26.33
2023-08-20T17:21:23.713Z,26.33
2023-08-20T17:23:25.790Z,26.32
2023-08-20T17:25:27.352Z,26.33
2023-08-20T17:27:29.043Z,26.33
2023-08-20T17:29:30.773Z,26.34
2023-08-20T17:31:32.657Z,26.34
2023-08-20T17:33:35.542Z,26.34
2023-08-20T17:35:37.129Z,26.34
2023-08-20T17:37:39.673Z,26.29
2023-08-20T17:39:41.341Z,26.34
2023-08-20T17:41:43.033Z,26.34
2023-08-20T17:43:44.591Z,26.34
2023-08-20T17:45:46.254Z,26.34
2023-08-20T17:47:47.985Z,26.34
2023-08-20T17:49:49.600Z,26.32
2023-08-20T17:51:51.171Z,26.34
2023-08-20T17:53:52.720Z,26.34
2023-08-20T17:55:55.012Z,26.30
2023-08-20T17:57:56.677Z,26.33
2023-08-20T17:59:58.370Z,26.32
2023-08-20T18:02:00.014Z,26.32
2023-08-20T18:04:01.681Z,26.31
2023-08-20T18:06:03.487Z,26.32
2023-08-20T18:08:05.509Z,26.32
2023-08-20T18:10:07.717Z,26.32
2023-08-20T18:12:09.465Z,26.31
2023-08-20T18:14:11.011Z,26.30
2023-08-20T18:16:12.784Z,26.28
2023-08-20T18:18:14.602Z,26.30
2023-08-20T18:20:16.512Z,26.27
2023-08-20T18:22:18.099Z,26.29
2023-08-20T18:24:19.659Z,26.29
2023-08-20T18:26:21.492Z,26.29
2023-08-20T18:28:23.116Z,26.28
2023-08-20T18:30:25.059Z,26.29
2023-08-20T18:32:26.697Z,26.27
2023-08-20T18:34:28.827Z,26.30
2023-08-20T18:36:32.565Z,26.29
2023-08-20T18:38:34.505Z,26.29
2023-08-20T18:40:36.064Z,26.26
2023-08-20T18:42:38.960Z,26.27
2023-08-20T18:44:42.484Z,26.24
2023-08-20T18:46:44.183Z,26.24
2023-08-20T18:48:45.849Z,26.25
2023-08-20T18:50:49.334Z,26.22
2023-08-20T18:52:50.871Z,26.19
2023-08-20T18:54:52.464Z,26.22
2023-08-20T18:56:54.095Z,26.20
2023-08-20T18:58:55.633Z,26.20
2023-08-20T19:00:57.333Z,26.16
2023-08-20T19:02:58.960Z,26.17
2023-08-20T19:05:00.653Z,26.20
2023-08-20T19:07:02.885Z,26.18
2023-08-20T19:09:08.465Z,26.16
2023-08-20T19:11:10.225Z,26.17
2023-08-20T19:13:12.822Z,26.18
2023-08-20T19:15:14.490Z,26.18
2023-08-20T19:17:16.202Z,26.16
2023-08-20T19:19:17.848Z,26.16
2023-08-20T19:21:19.404Z,26.14
2023-08-20T19:23:22.287Z,26.16
2023-08-20T19:25:24.258Z,26.13
2023-08-20T19:27:25.898Z,26.14
2023-08-20T19:29:27.487Z,26.10
2023-08-20T19:31:29.113Z,26.12
2023-08-20T19:33:33.455Z,26.09
2023-08-20T19:35:37.022Z,26.09
2023-08-20T19:37:39.008Z,26.09
2023-08-20T19:39:40.678Z,26.09
2023-08-20T19:41:42.356Z,26.08
2023-08-20T19:43:43.969Z,26.09
2023-08-20T19:45:45.642Z,26.08
2023-08-20T19:47:47.498Z,26.05
2023-08-20T19:49:49.097Z,26.07
2023-08-20T19:51:50.708Z,26.03
2023-08-20T19:53:52.454Z,26.03
2023-08-20T19:55:58.838Z,26.00
2023-08-20T19:58:02.096Z,26.00
2023-08-20T20:00:12.115Z,25.98
2023-08-20T20:02:13.762Z,25.96
2023-08-20T20:04:15.680Z,25.95
2023-08-20T20:06:17.358Z,25.93
2023-08-20T20:08:19.174Z,25.94
2023-08-20T20:10:20.879Z,25.90
2023-08-20T20:12:22.535Z,25.90
2023-08-20T20:14:24.093Z,25.90
2023-08-20T20:16:25.829Z,25.87
2023-08-20T20:18:29.184Z,25.88
2023-08-20T20:20:32.537Z,25.87
2023-08-20T20:22:34.198Z,25.85
2023-08-20T20:24:35.816Z,25.83
2023-08-20T20:26:40.216Z,25.83
2023-08-20T20:28:41.850Z,25.83
2023-08-20T20:30:43.480Z,25.80
2023-08-20T20:32:45.452Z,25.81
2023-08-20T20:34:48.373Z,25.80
2023-08-20T20:36:49.942Z,25.80
2023-08-20T20:38:51.499Z,25.78
2023-08-20T20:40:53.190Z,25.74
2023-08-20T20:42:54.799Z,25.74
2023-08-20T20:44:56.411Z,25.70
2023-08-20T20:46:58.055Z,25.72
2023-08-20T20:48:59.612Z,25.72
2023-08-20T20:51:01.341Z,25.70
2023-08-20T20:53:03.137Z,25.67
2023-08-20T20:55:06.314Z,25.69
2023-08-20T20:57:08.889Z,25.65
2023-08-20T20:59:10.481Z,25.65
2023-08-20T21:01:12.253Z,25.64
2023-08-20T21:03:13.976Z,25.67
2023-08-20T21:05:15.747Z,25.63
2023-08-20T21:07:17.342Z,25.63
2023-08-20T21:09:18.936Z,25.63
2023-08-20T21:11:20.534Z,25.60
2023-08-20T21:13:22.368Z,25.62
2023-08-20T21:15:24.065Z,25.59
2023-08-20T21:17:25.885Z,25.58
2023-08-20T21:19:27.705Z,25.59
2023-08-20T21:21:29.247Z,25.60
2023-08-20T21:23:30.874Z,25.57
2023-08-20T21:25:32.562Z,25.56
2023-08-20T21:27:34.176Z,25.57
2023-08-20T21:29:36.760Z,25.55
2023-08-20T21:31:38.465Z,25.56
2023-08-20T21:33:40.017Z,25.51
2023-08-20T21:35:41.606Z,25.54
2023-08-20T21:37:43.224Z,25.50
2023-08-20T21:39:45.502Z,25.51
2023-08-20T21:41:47.358Z,25.49
2023-08-20T21:43:49.246Z,25.51
2023-08-20T21:45:50.894Z,25.49
2023-08-20T21:49:59.029Z,25.50
2023-08-20T21:52:00.582Z,25.45
2023-08-20T21:54:03.543Z,25.47
2023-08-20T21:56:05.409Z,25.45
2023-08-20T21:58:07.103Z,25.46
2023-08-20T22:00:18.556Z,25.46
2023-08-20T22:02:20.368Z,25.45
2023-08-20T22:04:22.276Z,25.41
2023-08-20T22:06:23.875Z,25.40
2023-08-20T22:08:25.530Z,25.41
2023-08-20T22:10:27.324Z,25.40
2023-08-20T22:12:28.851Z,25.37
2023-08-20T22:14:30.542Z,25.36
2023-08-20T22:16:32.444Z,25.39
2023-08-20T22:18:34.054Z,25.38
2023-08-20T22:20:35.658Z,25.36
2023-08-20T22:22:39.255Z,25.34
2023-08-20T22:24:41.276Z,25.34
2023-08-20T22:26:42.890Z,25.32
2023-08-20T22:28:44.458Z,25.34
2023-08-20T22:30:46.032Z,25.33
2023-08-20T22:32:47.665Z,25.32
2023-08-20T22:34:53.014Z,25.30
2023-08-20T22:36:54.545Z,25.31
2023-08-20T22:38:56.187Z,25.31
2023-08-20T22:40:57.852Z,25.28
2023-08-20T22:42:59.461Z,25.26
2023-08-20T22:45:01.158Z,25.29
2023-08-20T22:47:03.494Z,25.27
2023-08-20T22:49:05.114Z,25.27
2023-08-20T22:51:06.789Z,25.26
2023-08-20T22:53:08.421Z,25.26
2023-08-20T22:55:11.297Z,25.23
2023-08-20T22:57:13.105Z,25.23
2023-08-20T22:59:16.031Z,25.21
2023-08-20T23:01:17.696Z,25.22
2023-08-20T23:03:19.381Z,25.20
2023-08-20T23:05:21.135Z,25.20
2023-08-20T23:07:22.669Z,25.20
2023-08-20T23:09:24.254Z,25.20
2023-08-20T23:11:25.935Z,25.18
2023-08-20T23:13:27.524Z,25.19
2023-08-20T23:15:29.085Z,25.18
2023-08-20T23:17:31.143Z,25.18
2023-08-20T23:19:32.935Z,25.17
2023-08-20T23:21:34.571Z,25.16
2023-08-20T23:23:36.231Z,25.16
2023-08-20T23:25:37.796Z,25.15
2023-08-20T23:27:39.588Z,25.15
2023-08-20T23:29:41.146Z,25.13
2023-08-20T23:31:42.824Z,25.13
2023-08-20T23:33:44.437Z,25.13
2023-08-20T23:35:46.042Z,25.13
2023-08-20T23:37:47.597Z,25.12
2023-08-20T23:39:49.308Z,25.11
2023-08-20T23:41:51.005Z,25.11
2023-08-20T23:43:52.661Z,25.10
2023-08-20T23:45:54.310Z,25.10
2023-08-20T23:47:55.951Z,25.09
2023-08-20T23:49:57.995Z,25.07
2023-08-20T23:51:59.655Z,25.08
2023-08-20T23:54:01.853Z,25.04
2023-08-20T23:58:10.222Z,25.07
